sensor_id;sensor_type;location;lat;lon;timestamp;temperature;humidity
9939;DHT22;5008;50.656;7.188;2022-09-09T00:01:22;18.40;99.90
9939;DHT22;5008;50.656;7.188;2022-09-09T00:03:57;18.30;99.90
9939;DHT22;5008;50.656;7.188;2022-09-09T00:06:29;18.20;99.90
9939;DHT22;5008;50.656;7.188;2022-09-09T00:09:12;18.10;99.90
9939;DHT22;5008;50.656;7.188;2022-09-09T00:16:51;18.10;99.90
9939;DHT22;5008;50.656;7.188;2022-09-09T00:19:24;18.10;99.90
9939;DHT22;5008;50.656;7.188;2022-09-09T00:22:02;18.10;99.90
9939;DHT22;5008;50.656;7.188;2022-09-09T00:24:39;18.10;99.90
9939;DHT22;5008;50.656;7.188;2022-09-09T00:27:14;18.10;99.90
9939;DHT22;5008;50.656;7.188;2022-09-09T00:29:46;18.10;99.90
9939;DHT22;5008;50.656;7.188;2022-09-09T00:32:17;18.20;99.90
9939;DHT22;5008;50.656;7.188;2022-09-09T00:34:48;18.10;99.90
9939;DHT22;5008;50.656;7.188;2022-09-09T00:37:15;18.00;99.90
9939;DHT22;5008;50.656;7.188;2022-09-09T00:39:45;18.10;99.90
9939;DHT22;5008;50.656;7.188;2022-09-09T00:42:15;18.00;99.90
9939;DHT22;5008;50.656;7.188;2022-09-09T00:44:52;18.00;99.90
9939;DHT22;5008;50.656;7.188;2022-09-09T00:47:46;18.00;99.90
9939;DHT22;5008;50.656;7.188;2022-09-09T00:50:28;18.00;99.90
9939;DHT22;5008;50.656;7.188;2022-09-09T00:53:10;17.90;99.90
9939;DHT22;5008;50.656;7.188;2022-09-09T00:55:44;17.90;99.90
9939;DHT22;5008;50.656;7.188;2022-09-09T00:58:13;17.90;99.90
9939;DHT22;5008;50.656;7.188;2022-09-09T01:00:44;17.80;99.90
9939;DHT22;5008;50.656;7.188;2022-09-09T01:03:20;17.70;99.90
9939;DHT22;5008;50.656;7.188;2022-09-09T01:05:57;17.60;99.90
9939;DHT22;5008;50.656;7.188;2022-09-09T01:08:37;17.50;99.90
9939;DHT22;5008;50.656;7.188;2022-09-09T01:11:10;17.40;99.90
9939;DHT22;5008;50.656;7.188;2022-09-09T01:13:42;17.30;99.90
9939;DHT22;5008;50.656;7.188;2022-09-09T01:16:12;17.30;99.90
9939;DHT22;5008;50.656;7.188;2022-09-09T01:18:44;17.30;99.90
9939;DHT22;5008;50.656;7.188;2022-09-09T01:21:20;17.30;99.90
9939;DHT22;5008;50.656;7.188;2022-09-09T01:24:04;17.30;99.90
9939;DHT22;5008;50.656;7.188;2022-09-09T01:26:37;17.30;99.90
9939;DHT22;5008;50.656;7.188;2022-09-09T01:29:08;17.30;99.90
9939;DHT22;5008;50.656;7.188;2022-09-09T01:31:38;17.20;99.90
9939;DHT22;5008;50.656;7.188;2022-09-09T01:34:10;17.20;99.90
9939;DHT22;5008;50.656;7.188;2022-09-09T01:36:41;17.20;99.90
9939;DHT22;5008;50.656;7.188;2022-09-09T01:39:09;17.20;99.90
9939;DHT22;5008;50.656;7.188;2022-09-09T01:41:38;17.20;99.90
9939;DHT22;5008;50.656;7.188;2022-09-09T01:44:05;17.20;99.90
9939;DHT22;5008;50.656;7.188;2022-09-09T01:46:32;17.20;99.90
9939;DHT22;5008;50.656;7.188;2022-09-09T01:48:59;17.20;99.90
9939;DHT22;5008;50.656;7.188;2022-09-09T01:51:27;17.30;99.90
9939;DHT22;5008;50.656;7.188;2022-09-09T01:53:54;17.30;99.90
9939;DHT22;5008;50.656;7.188;2022-09-09T01:56:35;17.30;99.90
9939;DHT22;5008;50.656;7.188;2022-09-09T01:59:13;17.30;99.90
9939;DHT22;5008;50.656;7.188;2022-09-09T02:01:50;17.40;99.90
9939;DHT22;5008;50.656;7.188;2022-09-09T02:04:30;17.40;99.90
9939;DHT22;5008;50.656;7.188;2022-09-09T02:07:01;17.40;99.90
9939;DHT22;5008;50.656;7.188;2022-09-09T02:09:29;17.40;99.90
9939;DHT22;5008;50.656;7.188;2022-09-09T02:12:01;17.40;99.90
9939;DHT22;5008;50.656;7.188;2022-09-09T02:14:37;17.40;99.90
9939;DHT22;5008;50.656;7.188;2022-09-09T02:17:10;17.40;99.90
9939;DHT22;5008;50.656;7.188;2022-09-09T02:19:40;17.40;99.90
9939;DHT22;5008;50.656;7.188;2022-09-09T02:22:11;17.40;99.90
9939;DHT22;5008;50.656;7.188;2022-09-09T02:24:39;17.30;99.90
9939;DHT22;5008;50.656;7.188;2022-09-09T02:27:08;17.20;99.90
9939;DHT22;5008;50.656;7.188;2022-09-09T02:32:40;17.10;99.90
9939;DHT22;5008;50.656;7.188;2022-09-09T02:35:11;17.10;99.90
9939;DHT22;5008;50.656;7.188;2022-09-09T02:37:42;17.10;99.90
9939;DHT22;5008;50.656;7.188;2022-09-09T02:40:12;17.10;99.90
9939;DHT22;5008;50.656;7.188;2022-09-09T02:42:40;17.00;99.90
9939;DHT22;5008;50.656;7.188;2022-09-09T02:45:09;17.00;99.90
9939;DHT22;5008;50.656;7.188;2022-09-09T02:47:41;17.10;99.90
9939;DHT22;5008;50.656;7.188;2022-09-09T02:50:13;17.10;99.90
9939;DHT22;5008;50.656;7.188;2022-09-09T02:53:11;17.10;99.90
9939;DHT22;5008;50.656;7.188;2022-09-09T02:55:43;17.10;99.90
9939;DHT22;5008;50.656;7.188;2022-09-09T02:58:16;17.20;99.90
9939;DHT22;5008;50.656;7.188;2022-09-09T03:00:44;17.10;99.90
9939;DHT22;5008;50.656;7.188;2022-09-09T03:03:14;17.10;99.90
9939;DHT22;5008;50.656;7.188;2022-09-09T03:05:41;17.20;99.90
9939;DHT22;5008;50.656;7.188;2022-09-09T03:08:08;17.20;99.90
9939;DHT22;5008;50.656;7.188;2022-09-09T03:10:35;17.20;99.90
9939;DHT22;5008;50.656;7.188;2022-09-09T03:13:03;17.10;99.90
9939;DHT22;5008;50.656;7.188;2022-09-09T03:15:31;17.10;99.90
9939;DHT22;5008;50.656;7.188;2022-09-09T03:17:58;17.10;99.90
9939;DHT22;5008;50.656;7.188;2022-09-09T03:20:28;17.10;99.90
9939;DHT22;5008;50.656;7.188;2022-09-09T03:22:56;17.10;99.90
9939;DHT22;5008;50.656;7.188;2022-09-09T03:25:24;17.10;99.90
9939;DHT22;5008;50.656;7.188;2022-09-09T03:27:51;17.10;99.90
9939;DHT22;5008;50.656;7.188;2022-09-09T03:30:27;17.10;99.90
9939;DHT22;5008;50.656;7.188;2022-09-09T03:32:54;17.10;99.90
9939;DHT22;5008;50.656;7.188;2022-09-09T03:35:27;17.10;99.90
9939;DHT22;5008;50.656;7.188;2022-09-09T03:37:55;17.20;99.90
9939;DHT22;5008;50.656;7.188;2022-09-09T03:40:21;17.20;99.90
9939;DHT22;5008;50.656;7.188;2022-09-09T03:42:58;17.10;99.90
9939;DHT22;5008;50.656;7.188;2022-09-09T03:45:25;17.10;99.90
9939;DHT22;5008;50.656;7.188;2022-09-09T03:47:52;17.20;99.90
9939;DHT22;5008;50.656;7.188;2022-09-09T03:50:19;17.30;99.90
9939;DHT22;5008;50.656;7.188;2022-09-09T03:52:47;17.30;99.90
9939;DHT22;5008;50.656;7.188;2022-09-09T03:55:14;17.40;99.90
9939;DHT22;5008;50.656;7.188;2022-09-09T03:57:41;17.40;99.90
9939;DHT22;5008;50.656;7.188;2022-09-09T04:00:09;17.40;99.90
9939;DHT22;5008;50.656;7.188;2022-09-09T04:02:36;17.40;99.90
9939;DHT22;5008;50.656;7.188;2022-09-09T04:05:03;17.50;99.90
9939;DHT22;5008;50.656;7.188;2022-09-09T04:07:31;17.50;99.90
9939;DHT22;5008;50.656;7.188;2022-09-09T04:09:59;17.50;99.90
9939;DHT22;5008;50.656;7.188;2022-09-09T04:12:27;17.50;99.90
9939;DHT22;5008;50.656;7.188;2022-09-09T04:14:53;17.50;99.90
9939;DHT22;5008;50.656;7.188;2022-09-09T04:17:25;17.50;99.90
9939;DHT22;5008;50.656;7.188;2022-09-09T04:19:52;17.50;99.90
9939;DHT22;5008;50.656;7.188;2022-09-09T04:22:19;17.50;99.90
9939;DHT22;5008;50.656;7.188;2022-09-09T04:24:45;17.50;99.90
9939;DHT22;5008;50.656;7.188;2022-09-09T04:27:13;17.50;99.90
9939;DHT22;5008;50.656;7.188;2022-09-09T04:29:40;17.50;99.90
9939;DHT22;5008;50.656;7.188;2022-09-09T04:32:07;17.50;99.90
9939;DHT22;5008;50.656;7.188;2022-09-09T04:34:34;17.50;99.90
9939;DHT22;5008;50.656;7.188;2022-09-09T04:37:00;17.50;99.90
9939;DHT22;5008;50.656;7.188;2022-09-09T04:39:27;17.50;99.90
9939;DHT22;5008;50.656;7.188;2022-09-09T04:41:54;17.50;99.90
9939;DHT22;5008;50.656;7.188;2022-09-09T04:44:22;17.50;99.90
9939;DHT22;5008;50.656;7.188;2022-09-09T04:46:49;17.50;99.90
9939;DHT22;5008;50.656;7.188;2022-09-09T04:49:16;17.50;99.90
9939;DHT22;5008;50.656;7.188;2022-09-09T04:51:43;17.50;99.90
9939;DHT22;5008;50.656;7.188;2022-09-09T04:54:10;17.50;99.90
9939;DHT22;5008;50.656;7.188;2022-09-09T04:56:37;17.50;99.90
9939;DHT22;5008;50.656;7.188;2022-09-09T04:59:03;17.50;99.90
9939;DHT22;5008;50.656;7.188;2022-09-09T05:01:34;17.50;99.90
9939;DHT22;5008;50.656;7.188;2022-09-09T05:04:01;17.50;99.90
9939;DHT22;5008;50.656;7.188;2022-09-09T05:06:28;17.40;99.90
9939;DHT22;5008;50.656;7.188;2022-09-09T05:08:57;17.40;99.90
9939;DHT22;5008;50.656;7.188;2022-09-09T05:11:25;17.40;99.90
9939;DHT22;5008;50.656;7.188;2022-09-09T05:13:53;17.40;99.90
9939;DHT22;5008;50.656;7.188;2022-09-09T05:16:20;17.40;99.90
9939;DHT22;5008;50.656;7.188;2022-09-09T05:18:49;17.40;99.90
9939;DHT22;5008;50.656;7.188;2022-09-09T05:21:18;17.40;99.90
9939;DHT22;5008;50.656;7.188;2022-09-09T05:23:45;17.40;99.90
9939;DHT22;5008;50.656;7.188;2022-09-09T05:26:14;17.50;99.90
9939;DHT22;5008;50.656;7.188;2022-09-09T05:28:41;17.50;99.90
9939;DHT22;5008;50.656;7.188;2022-09-09T05:31:10;17.50;99.90
9939;DHT22;5008;50.656;7.188;2022-09-09T05:33:38;17.60;99.90
9939;DHT22;5008;50.656;7.188;2022-09-09T05:38:59;17.60;99.90
9939;DHT22;5008;50.656;7.188;2022-09-09T05:41:26;17.60;99.90
9939;DHT22;5008;50.656;7.188;2022-09-09T05:43:54;17.60;99.90
9939;DHT22;5008;50.656;7.188;2022-09-09T05:46:22;17.60;99.90
9939;DHT22;5008;50.656;7.188;2022-09-09T05:48:50;17.70;99.90
9939;DHT22;5008;50.656;7.188;2022-09-09T05:51:18;17.60;99.90
9939;DHT22;5008;50.656;7.188;2022-09-09T05:53:47;17.60;99.90
9939;DHT22;5008;50.656;7.188;2022-09-09T05:56:18;17.60;99.90
9939;DHT22;5008;50.656;7.188;2022-09-09T05:58:46;17.60;99.90
9939;DHT22;5008;50.656;7.188;2022-09-09T06:01:16;17.60;99.90
9939;DHT22;5008;50.656;7.188;2022-09-09T06:03:45;17.60;99.90
9939;DHT22;5008;50.656;7.188;2022-09-09T06:06:14;17.70;99.90
9939;DHT22;5008;50.656;7.188;2022-09-09T06:08:42;17.80;99.90
9939;DHT22;5008;50.656;7.188;2022-09-09T06:11:12;17.90;99.90
9939;DHT22;5008;50.656;7.188;2022-09-09T06:13:40;17.90;99.90
9939;DHT22;5008;50.656;7.188;2022-09-09T06:16:08;18.00;99.90
9939;DHT22;5008;50.656;7.188;2022-09-09T06:18:36;18.00;99.90
9939;DHT22;5008;50.656;7.188;2022-09-09T06:21:05;18.00;99.90
9939;DHT22;5008;50.656;7.188;2022-09-09T06:23:32;18.00;99.90
9939;DHT22;5008;50.656;7.188;2022-09-09T06:26:04;18.30;99.90
9939;DHT22;5008;50.656;7.188;2022-09-09T06:28:32;18.30;99.90
9939;DHT22;5008;50.656;7.188;2022-09-09T06:31:01;18.30;99.90
9939;DHT22;5008;50.656;7.188;2022-09-09T06:33:31;18.30;99.90
9939;DHT22;5008;50.656;7.188;2022-09-09T06:36:00;18.40;99.90
9939;DHT22;5008;50.656;7.188;2022-09-09T06:38:27;18.60;99.90
9939;DHT22;5008;50.656;7.188;2022-09-09T06:40:54;18.70;99.90
9939;DHT22;5008;50.656;7.188;2022-09-09T06:43:21;18.80;99.90
9939;DHT22;5008;50.656;7.188;2022-09-09T06:45:55;18.70;99.90
9939;DHT22;5008;50.656;7.188;2022-09-09T06:48:24;18.60;99.90
9939;DHT22;5008;50.656;7.188;2022-09-09T06:51:00;18.60;99.90
9939;DHT22;5008;50.656;7.188;2022-09-09T06:53:27;18.70;99.90
9939;DHT22;5008;50.656;7.188;2022-09-09T06:55:54;18.80;99.90
9939;DHT22;5008;50.656;7.188;2022-09-09T06:58:23;18.80;99.90
9939;DHT22;5008;50.656;7.188;2022-09-09T07:00:50;18.80;99.90
9939;DHT22;5008;50.656;7.188;2022-09-09T07:03:16;18.80;99.90
9939;DHT22;5008;50.656;7.188;2022-09-09T07:05:55;18.90;99.90
9939;DHT22;5008;50.656;7.188;2022-09-09T07:08:22;19.00;99.90
9939;DHT22;5008;50.656;7.188;2022-09-09T07:10:50;19.00;99.90
9939;DHT22;5008;50.656;7.188;2022-09-09T07:13:19;19.30;99.90
9939;DHT22;5008;50.656;7.188;2022-09-09T07:15:49;19.10;99.90
9939;DHT22;5008;50.656;7.188;2022-09-09T07:18:16;19.10;99.90
9939;DHT22;5008;50.656;7.188;2022-09-09T07:20:43;19.00;99.90
9939;DHT22;5008;50.656;7.188;2022-09-09T07:23:11;19.00;99.90
9939;DHT22;5008;50.656;7.188;2022-09-09T07:25:38;19.00;99.90
9939;DHT22;5008;50.656;7.188;2022-09-09T07:28:10;19.30;99.90
9939;DHT22;5008;50.656;7.188;2022-09-09T07:30:37;19.40;99.90
9939;DHT22;5008;50.656;7.188;2022-09-09T07:33:21;19.40;99.90
9939;DHT22;5008;50.656;7.188;2022-09-09T07:35:47;19.40;99.90
9939;DHT22;5008;50.656;7.188;2022-09-09T07:38:50;19.30;99.90
9939;DHT22;5008;50.656;7.188;2022-09-09T07:41:19;19.30;99.90
9939;DHT22;5008;50.656;7.188;2022-09-09T07:43:48;19.40;99.90
9939;DHT22;5008;50.656;7.188;2022-09-09T07:46:17;19.40;99.90
9939;DHT22;5008;50.656;7.188;2022-09-09T07:48:45;19.40;99.90
9939;DHT22;5008;50.656;7.188;2022-09-09T07:51:14;19.40;99.90
9939;DHT22;5008;50.656;7.188;2022-09-09T07:53:44;19.40;99.90
9939;DHT22;5008;50.656;7.188;2022-09-09T07:56:20;19.40;99.90
9939;DHT22;5008;50.656;7.188;2022-09-09T07:58:48;19.40;99.90
9939;DHT22;5008;50.656;7.188;2022-09-09T08:01:17;19.40;99.90
9939;DHT22;5008;50.656;7.188;2022-09-09T08:03:45;19.30;99.90
9939;DHT22;5008;50.656;7.188;2022-09-09T08:06:13;19.40;99.90
9939;DHT22;5008;50.656;7.188;2022-09-09T08:08:51;19.50;99.90
9939;DHT22;5008;50.656;7.188;2022-09-09T08:11:19;19.50;99.90
9939;DHT22;5008;50.656;7.188;2022-09-09T08:13:46;19.50;99.90
9939;DHT22;5008;50.656;7.188;2022-09-09T08:16:15;19.40;99.90
9939;DHT22;5008;50.656;7.188;2022-09-09T08:18:42;19.40;99.90
9939;DHT22;5008;50.656;7.188;2022-09-09T08:21:12;19.40;99.90
9939;DHT22;5008;50.656;7.188;2022-09-09T08:23:40;19.40;99.90
9939;DHT22;5008;50.656;7.188;2022-09-09T08:26:10;19.50;99.90
9939;DHT22;5008;50.656;7.188;2022-09-09T08:28:39;19.40;99.90
9939;DHT22;5008;50.656;7.188;2022-09-09T08:31:11;19.60;99.90
9939;DHT22;5008;50.656;7.188;2022-09-09T08:33:39;19.70;99.90
9939;DHT22;5008;50.656;7.188;2022-09-09T08:36:09;19.70;99.90
9939;DHT22;5008;50.656;7.188;2022-09-09T08:38:36;19.70;99.90
9939;DHT22;5008;50.656;7.188;2022-09-09T08:41:25;19.70;99.90
9939;DHT22;5008;50.656;7.188;2022-09-09T08:44:03;19.60;99.90
9939;DHT22;5008;50.656;7.188;2022-09-09T08:46:37;19.60;99.90
9939;DHT22;5008;50.656;7.188;2022-09-09T08:49:29;19.70;99.90
9939;DHT22;5008;50.656;7.188;2022-09-09T08:51:59;19.80;99.90
9939;DHT22;5008;50.656;7.188;2022-09-09T08:54:33;19.80;99.90
9939;DHT22;5008;50.656;7.188;2022-09-09T08:57:04;19.80;99.90
9939;DHT22;5008;50.656;7.188;2022-09-09T08:59:39;19.70;99.90
9939;DHT22;5008;50.656;7.188;2022-09-09T09:02:15;19.80;99.90
9939;DHT22;5008;50.656;7.188;2022-09-09T09:04:55;19.80;99.90
9939;DHT22;5008;50.656;7.188;2022-09-09T09:07:31;19.90;99.90
9939;DHT22;5008;50.656;7.188;2022-09-09T09:10:08;19.90;99.90
9939;DHT22;5008;50.656;7.188;2022-09-09T09:12:41;20.00;99.90
9939;DHT22;5008;50.656;7.188;2022-09-09T09:15:18;20.00;99.90
9939;DHT22;5008;50.656;7.188;2022-09-09T09:17:46;20.10;99.90
9939;DHT22;5008;50.656;7.188;2022-09-09T09:20:14;20.00;99.90
9939;DHT22;5008;50.656;7.188;2022-09-09T09:22:47;20.00;99.90
9939;DHT22;5008;50.656;7.188;2022-09-09T09:25:18;20.10;99.90
9939;DHT22;5008;50.656;7.188;2022-09-09T09:27:52;20.20;99.90
9939;DHT22;5008;50.656;7.188;2022-09-09T09:30:28;20.10;99.90
9939;DHT22;5008;50.656;7.188;2022-09-09T09:32:59;20.10;99.90
9939;DHT22;5008;50.656;7.188;2022-09-09T09:35:27;20.10;99.90
9939;DHT22;5008;50.656;7.188;2022-09-09T09:38:01;20.20;99.90
9939;DHT22;5008;50.656;7.188;2022-09-09T09:40:36;20.20;99.90
9939;DHT22;5008;50.656;7.188;2022-09-09T09:43:03;20.10;99.90
9939;DHT22;5008;50.656;7.188;2022-09-09T09:45:40;20.10;99.90
9939;DHT22;5008;50.656;7.188;2022-09-09T09:48:11;20.20;99.90
9939;DHT22;5008;50.656;7.188;2022-09-09T09:50:46;20.10;99.90
9939;DHT22;5008;50.656;7.188;2022-09-09T09:53:21;20.00;99.90
9939;DHT22;5008;50.656;7.188;2022-09-09T09:55:55;19.90;99.90
9939;DHT22;5008;50.656;7.188;2022-09-09T09:58:23;19.90;99.90
9939;DHT22;5008;50.656;7.188;2022-09-09T10:00:53;20.00;99.90
9939;DHT22;5008;50.656;7.188;2022-09-09T10:03:25;20.00;99.90
9939;DHT22;5008;50.656;7.188;2022-09-09T10:05:52;20.00;99.90
9939;DHT22;5008;50.656;7.188;2022-09-09T10:08:20;20.10;99.90
9939;DHT22;5008;50.656;7.188;2022-09-09T10:11:00;20.10;99.90
9939;DHT22;5008;50.656;7.188;2022-09-09T10:13:31;20.10;99.90
9939;DHT22;5008;50.656;7.188;2022-09-09T10:16:18;20.20;99.90
9939;DHT22;5008;50.656;7.188;2022-09-09T10:18:59;20.20;99.90
9939;DHT22;5008;50.656;7.188;2022-09-09T10:24:56;20.30;99.90
9939;DHT22;5008;50.656;7.188;2022-09-09T10:27:33;20.30;99.90
9939;DHT22;5008;50.656;7.188;2022-09-09T10:30:11;20.20;99.90
9939;DHT22;5008;50.656;7.188;2022-09-09T10:32:46;20.30;99.90
9939;DHT22;5008;50.656;7.188;2022-09-09T10:35:25;20.40;99.90
9939;DHT22;5008;50.656;7.188;2022-09-09T10:38:13;20.30;99.90
9939;DHT22;5008;50.656;7.188;2022-09-09T10:40:48;20.50;99.90
9939;DHT22;5008;50.656;7.188;2022-09-09T10:43:30;20.50;99.90
9939;DHT22;5008;50.656;7.188;2022-09-09T10:46:10;20.50;99.90
9939;DHT22;5008;50.656;7.188;2022-09-09T10:48:57;20.60;99.90
9939;DHT22;5008;50.656;7.188;2022-09-09T10:51:35;20.70;99.90
9939;DHT22;5008;50.656;7.188;2022-09-09T10:54:17;20.80;99.90
9939;DHT22;5008;50.656;7.188;2022-09-09T10:56:51;20.90;99.90
9939;DHT22;5008;50.656;7.188;2022-09-09T10:59:21;20.80;99.90
9939;DHT22;5008;50.656;7.188;2022-09-09T11:01:55;20.90;99.90
9939;DHT22;5008;50.656;7.188;2022-09-09T11:04:28;20.80;99.90
9939;DHT22;5008;50.656;7.188;2022-09-09T11:07:08;20.80;99.90
9939;DHT22;5008;50.656;7.188;2022-09-09T11:09:39;20.80;99.90
9939;DHT22;5008;50.656;7.188;2022-09-09T11:12:15;20.80;99.90
9939;DHT22;5008;50.656;7.188;2022-09-09T11:14:48;20.80;99.90
9939;DHT22;5008;50.656;7.188;2022-09-09T11:17:19;20.80;99.90
9939;DHT22;5008;50.656;7.188;2022-09-09T11:19:48;20.90;99.90
9939;DHT22;5008;50.656;7.188;2022-09-09T11:22:20;20.90;99.90
9939;DHT22;5008;50.656;7.188;2022-09-09T11:24:52;20.90;99.90
9939;DHT22;5008;50.656;7.188;2022-09-09T11:27:24;20.80;99.90
9939;DHT22;5008;50.656;7.188;2022-09-09T11:30:19;20.80;99.90
9939;DHT22;5008;50.656;7.188;2022-09-09T11:36:03;20.80;99.90
9939;DHT22;5008;50.656;7.188;2022-09-09T11:38:42;20.80;99.90
9939;DHT22;5008;50.656;7.188;2022-09-09T11:41:11;20.80;99.90
9939;DHT22;5008;50.656;7.188;2022-09-09T11:43:41;20.90;99.90
9939;DHT22;5008;50.656;7.188;2022-09-09T11:46:09;21.10;99.90
9939;DHT22;5008;50.656;7.188;2022-09-09T11:48:38;21.10;99.90
9939;DHT22;5008;50.656;7.188;2022-09-09T11:51:11;21.20;99.90
9939;DHT22;5008;50.656;7.188;2022-09-09T11:53:49;21.30;99.90
9939;DHT22;5008;50.656;7.188;2022-09-09T11:56:25;21.40;99.90
9939;DHT22;5008;50.656;7.188;2022-09-09T11:58:58;21.40;99.90
9939;DHT22;5008;50.656;7.188;2022-09-09T12:01:40;21.40;99.90
9939;DHT22;5008;50.656;7.188;2022-09-09T12:04:28;21.30;99.90
9939;DHT22;5008;50.656;7.188;2022-09-09T12:07:00;21.30;99.90
9939;DHT22;5008;50.656;7.188;2022-09-09T12:09:32;21.30;99.90
9939;DHT22;5008;50.656;7.188;2022-09-09T12:12:17;21.40;99.90
9939;DHT22;5008;50.656;7.188;2022-09-09T12:14:56;21.50;99.90
9939;DHT22;5008;50.656;7.188;2022-09-09T12:17:26;21.40;99.90
9939;DHT22;5008;50.656;7.188;2022-09-09T12:20:01;21.30;99.90
9939;DHT22;5008;50.656;7.188;2022-09-09T12:22:37;21.20;99.90
9939;DHT22;5008;50.656;7.188;2022-09-09T12:25:20;21.30;99.90
9939;DHT22;5008;50.656;7.188;2022-09-09T12:28:00;21.20;99.90
9939;DHT22;5008;50.656;7.188;2022-09-09T12:30:31;21.10;99.90
9939;DHT22;5008;50.656;7.188;2022-09-09T12:33:02;21.10;99.90
9939;DHT22;5008;50.656;7.188;2022-09-09T12:35:29;21.20;99.90
9939;DHT22;5008;50.656;7.188;2022-09-09T12:38:01;21.10;99.90
9939;DHT22;5008;50.656;7.188;2022-09-09T12:40:30;21.00;99.90
9939;DHT22;5008;50.656;7.188;2022-09-09T12:42:58;21.10;99.90
9939;DHT22;5008;50.656;7.188;2022-09-09T12:45:28;21.10;99.90
9939;DHT22;5008;50.656;7.188;2022-09-09T12:47:58;21.10;99.90
9939;DHT22;5008;50.656;7.188;2022-09-09T12:50:33;21.10;99.90
9939;DHT22;5008;50.656;7.188;2022-09-09T12:53:03;21.00;99.90
9939;DHT22;5008;50.656;7.188;2022-09-09T12:55:49;21.00;99.90
9939;DHT22;5008;50.656;7.188;2022-09-09T12:58:18;21.00;99.90
9939;DHT22;5008;50.656;7.188;2022-09-09T13:00:54;21.00;99.90
9939;DHT22;5008;50.656;7.188;2022-09-09T13:03:22;21.00;99.90
9939;DHT22;5008;50.656;7.188;2022-09-09T13:05:50;21.00;99.90
9939;DHT22;5008;50.656;7.188;2022-09-09T13:08:20;21.00;99.90
9939;DHT22;5008;50.656;7.188;2022-09-09T13:10:55;21.10;99.90
9939;DHT22;5008;50.656;7.188;2022-09-09T13:13:27;21.00;99.90
9939;DHT22;5008;50.656;7.188;2022-09-09T13:15:56;21.00;99.90
9939;DHT22;5008;50.656;7.188;2022-09-09T13:18:27;20.90;99.90
9939;DHT22;5008;50.656;7.188;2022-09-09T13:20:54;21.00;99.90
9939;DHT22;5008;50.656;7.188;2022-09-09T13:23:27;21.00;99.90
9939;DHT22;5008;50.656;7.188;2022-09-09T13:25:56;20.90;99.90
9939;DHT22;5008;50.656;7.188;2022-09-09T13:28:25;20.90;99.90
9939;DHT22;5008;50.656;7.188;2022-09-09T13:30:59;20.90;99.90
9939;DHT22;5008;50.656;7.188;2022-09-09T13:33:32;20.80;99.90
9939;DHT22;5008;50.656;7.188;2022-09-09T13:36:11;20.80;99.90
9939;DHT22;5008;50.656;7.188;2022-09-09T13:38:52;21.00;99.90
9939;DHT22;5008;50.656;7.188;2022-09-09T13:41:20;21.20;99.90
9939;DHT22;5008;50.656;7.188;2022-09-09T13:43:49;21.30;99.90
9939;DHT22;5008;50.656;7.188;2022-09-09T13:46:30;21.50;99.90
9939;DHT22;5008;50.656;7.188;2022-09-09T13:48:59;21.60;99.90
9939;DHT22;5008;50.656;7.188;2022-09-09T13:51:34;21.70;99.90
9939;DHT22;5008;50.656;7.188;2022-09-09T13:54:04;21.60;99.90
9939;DHT22;5008;50.656;7.188;2022-09-09T13:56:31;21.40;99.90
9939;DHT22;5008;50.656;7.188;2022-09-09T13:58:58;21.30;99.90
9939;DHT22;5008;50.656;7.188;2022-09-09T14:01:25;21.20;99.90
9939;DHT22;5008;50.656;7.188;2022-09-09T14:03:58;21.20;99.90
9939;DHT22;5008;50.656;7.188;2022-09-09T14:06:25;21.10;99.90
9939;DHT22;5008;50.656;7.188;2022-09-09T14:08:53;21.10;99.90
9939;DHT22;5008;50.656;7.188;2022-09-09T14:11:21;21.10;99.90
9939;DHT22;5008;50.656;7.188;2022-09-09T14:13:48;21.20;99.90
9939;DHT22;5008;50.656;7.188;2022-09-09T14:16:16;21.20;99.90
9939;DHT22;5008;50.656;7.188;2022-09-09T14:18:44;21.20;99.90
9939;DHT22;5008;50.656;7.188;2022-09-09T14:21:11;21.30;99.90
9939;DHT22;5008;50.656;7.188;2022-09-09T14:23:49;21.20;99.90
9939;DHT22;5008;50.656;7.188;2022-09-09T14:26:16;21.20;99.90
9939;DHT22;5008;50.656;7.188;2022-09-09T14:28:45;21.20;99.90
9939;DHT22;5008;50.656;7.188;2022-09-09T14:31:13;21.20;99.90
9939;DHT22;5008;50.656;7.188;2022-09-09T14:33:40;21.20;99.90
9939;DHT22;5008;50.656;7.188;2022-09-09T14:36:07;21.20;99.90
9939;DHT22;5008;50.656;7.188;2022-09-09T14:38:36;21.10;99.90
9939;DHT22;5008;50.656;7.188;2022-09-09T14:41:05;21.10;99.90
9939;DHT22;5008;50.656;7.188;2022-09-09T14:43:35;21.00;99.90
9939;DHT22;5008;50.656;7.188;2022-09-09T14:46:06;20.90;99.90
9939;DHT22;5008;50.656;7.188;2022-09-09T14:48:35;20.90;99.90
9939;DHT22;5008;50.656;7.188;2022-09-09T14:51:09;20.80;99.90
9939;DHT22;5008;50.656;7.188;2022-09-09T14:53:38;20.60;99.90
9939;DHT22;5008;50.656;7.188;2022-09-09T14:56:06;20.50;99.90
9939;DHT22;5008;50.656;7.188;2022-09-09T14:58:35;20.40;99.90
9939;DHT22;5008;50.656;7.188;2022-09-09T15:01:06;20.40;99.90
9939;DHT22;5008;50.656;7.188;2022-09-09T15:03:53;20.50;99.90
9939;DHT22;5008;50.656;7.188;2022-09-09T15:06:21;20.70;99.90
9939;DHT22;5008;50.656;7.188;2022-09-09T15:08:54;20.90;99.90
9939;DHT22;5008;50.656;7.188;2022-09-09T15:11:28;21.10;99.90
9939;DHT22;5008;50.656;7.188;2022-09-09T15:13:56;21.10;99.90
9939;DHT22;5008;50.656;7.188;2022-09-09T15:16:26;21.00;99.90
9939;DHT22;5008;50.656;7.188;2022-09-09T15:18:56;21.10;99.90
9939;DHT22;5008;50.656;7.188;2022-09-09T15:21:25;21.00;99.90
9939;DHT22;5008;50.656;7.188;2022-09-09T15:23:52;20.90;99.90
9939;DHT22;5008;50.656;7.188;2022-09-09T15:26:20;20.90;99.90
9939;DHT22;5008;50.656;7.188;2022-09-09T15:28:47;20.70;99.90
9939;DHT22;5008;50.656;7.188;2022-09-09T15:31:17;20.80;99.90
9939;DHT22;5008;50.656;7.188;2022-09-09T15:33:48;20.80;99.90
9939;DHT22;5008;50.656;7.188;2022-09-09T15:36:22;20.70;99.90
9939;DHT22;5008;50.656;7.188;2022-09-09T15:38:49;20.60;99.90
9939;DHT22;5008;50.656;7.188;2022-09-09T15:41:18;20.50;99.90
9939;DHT22;5008;50.656;7.188;2022-09-09T15:44:13;20.60;99.90
9939;DHT22;5008;50.656;7.188;2022-09-09T15:46:42;20.60;99.90
9939;DHT22;5008;50.656;7.188;2022-09-09T15:49:12;20.60;99.90
9939;DHT22;5008;50.656;7.188;2022-09-09T15:51:41;20.60;99.90
9939;DHT22;5008;50.656;7.188;2022-09-09T15:54:13;20.50;99.90
9939;DHT22;5008;50.656;7.188;2022-09-09T15:56:47;20.50;99.90
9939;DHT22;5008;50.656;7.188;2022-09-09T15:59:16;20.50;99.90
9939;DHT22;5008;50.656;7.188;2022-09-09T16:01:43;20.50;99.90
9939;DHT22;5008;50.656;7.188;2022-09-09T16:04:12;20.40;99.90
9939;DHT22;5008;50.656;7.188;2022-09-09T16:06:47;20.40;99.90
9939;DHT22;5008;50.656;7.188;2022-09-09T16:09:14;20.50;99.90
9939;DHT22;5008;50.656;7.188;2022-09-09T16:11:40;20.60;99.90
9939;DHT22;5008;50.656;7.188;2022-09-09T16:14:07;20.60;99.90
9939;DHT22;5008;50.656;7.188;2022-09-09T16:16:34;20.60;99.90
9939;DHT22;5008;50.656;7.188;2022-09-09T16:19:03;20.60;99.90
9939;DHT22;5008;50.656;7.188;2022-09-09T16:21:34;20.50;99.90
9939;DHT22;5008;50.656;7.188;2022-09-09T16:24:05;20.40;99.90
9939;DHT22;5008;50.656;7.188;2022-09-09T16:26:34;20.40;99.90
9939;DHT22;5008;50.656;7.188;2022-09-09T16:29:02;20.40;99.90
9939;DHT22;5008;50.656;7.188;2022-09-09T16:31:30;20.30;99.90
9939;DHT22;5008;50.656;7.188;2022-09-09T16:34:00;20.30;99.90
9939;DHT22;5008;50.656;7.188;2022-09-09T16:36:30;20.20;99.90
9939;DHT22;5008;50.656;7.188;2022-09-09T16:39:00;20.10;99.90
9939;DHT22;5008;50.656;7.188;2022-09-09T16:41:29;20.00;99.90
9939;DHT22;5008;50.656;7.188;2022-09-09T16:43:58;20.00;99.90
9939;DHT22;5008;50.656;7.188;2022-09-09T16:46:26;19.90;99.90